Time;durP1;ratioP1;P1;durP2;ratioP2;P2;SDS_P1;SDS_P2;PMS_P1;PMS_P2;Temp;Humidity;BMP_temperature;BMP_pressure;BME280_temperature;BME280_humidity;BME280_pressure;Samples;Min_cycle;Max_cycle;Signal;HPM_P1;HPM_P2
2023/09/25 00:01:36;;;;;;;5.10;3.03;;;11.10;77.70;;;;;;5032452;28;20417;-77
2023/09/25 00:04:01;;;;;;;7.73;3.77;;;11.10;77.80;;;;;;5030305;28;20207;-78
2023/09/25 00:06:28;;;;;;;5.60;2.97;;;11.20;78.10;;;;;;5015504;28;20592;-78
2023/09/25 00:08:54;;;;;;;4.67;3.13;;;11.20;77.80;;;;;;5006215;28;20480;-79
2023/09/25 00:11:20;;;;;;;5.40;3.40;;;11.20;77.80;;;;;;5018770;28;20429;-79
2023/09/25 00:13:46;;;;;;;10.17;4.23;;;11.20;77.80;;;;;;5013541;28;20683;-79
2023/09/25 00:16:16;;;;;;;6.50;3.33;;;11.20;77.80;;;;;;5012566;28;20556;-79
2023/09/25 00:18:45;;;;;;;6.53;3.60;;;11.20;78.10;;;;;;5019794;28;20460;-79
2023/09/25 00:21:11;;;;;;;7.47;3.33;;;11.10;78.30;;;;;;5026137;28;20491;-80
2023/09/25 00:23:38;;;;;;;7.37;3.60;;;11.10;78.60;;;;;;5007175;28;20848;-80
2023/09/25 00:26:06;;;;;;;6.33;3.40;;;11.10;78.60;;;;;;5016384;28;20222;-79
2023/09/25 00:28:36;;;;;;;7.50;4.23;;;11.10;78.70;;;;;;5023284;28;20874;-80
2023/09/25 00:31:02;;;;;;;5.00;3.43;;;11.10;78.90;;;;;;5025316;28;20457;-80
2023/09/25 00:33:28;;;;;;;10.20;3.60;;;11.10;78.90;;;;;;5031438;28;20433;-79
2023/09/25 00:35:54;;;;;;;11.33;4.00;;;11.00;79.00;;;;;;5023281;28;20206;-80
2023/09/25 00:38:20;;;;;;;7.20;3.80;;;11.10;79.20;;;;;;5020484;28;20488;-81
2023/09/25 00:40:46;;;;;;;6.93;3.90;;;11.10;79.00;;;;;;5025499;28;20186;-80
2023/09/25 00:43:13;;;;;;;5.30;3.33;;;11.10;79.00;;;;;;5008915;28;20892;-80
2023/09/25 00:45:40;;;;;;;7.17;4.17;;;11.10;78.70;;;;;;5023292;28;20768;-79
2023/09/25 00:48:10;;;;;;;7.03;4.30;;;11.00;78.90;;;;;;5014374;28;20439;-78
2023/09/25 00:50:37;;;;;;;6.60;3.50;;;10.90;79.20;;;;;;5031073;28;20421;-80
2023/09/25 00:53:07;;;;;;;5.07;3.47;;;10.90;79.30;;;;;;5017761;28;20460;-80
2023/09/25 00:55:34;;;;;;;8.63;3.70;;;10.90;79.20;;;;;;5014204;28;20481;-79
2023/09/25 00:58:01;;;;;;;7.00;3.40;;;10.90;78.90;;;;;;4980794;28;20490;-79
2023/09/25 01:00:27;;;;;;;7.80;4.20;;;10.90;79.00;;;;;;5024238;28;20453;-80
2023/09/25 01:02:53;;;;;;;7.40;3.80;;;10.80;78.70;;;;;;5004229;28;20471;-79
2023/09/25 01:05:21;;;;;;;7.20;3.70;;;10.80;79.00;;;;;;5028067;28;20217;-78
2023/09/25 01:07:46;;;;;;;5.07;3.20;;;10.70;79.50;;;;;;5028311;28;20421;-80
2023/09/25 01:10:17;;;;;;;6.20;3.50;;;10.60;79.70;;;;;;5030788;28;20435;-80
2023/09/25 01:12:45;;;;;;;6.00;3.57;;;10.70;79.70;;;;;;5030925;28;20238;-80
2023/09/25 01:15:13;;;;;;;7.73;3.60;;;10.70;79.50;;;;;;5005342;28;20532;-80
2023/09/25 01:17:39;;;;;;;7.43;3.50;;;10.80;79.50;;;;;;5013897;28;20464;-81
2023/09/25 01:20:13;;;;;;;5.20;3.53;;;10.80;79.50;;;;;;5011543;28;20439;-79
2023/09/25 01:22:48;;;;;;;6.50;3.60;;;10.80;79.30;;;;;;5016320;28;20425;-81
2023/09/25 01:25:18;;;;;;;7.17;3.50;;;10.70;79.30;;;;;;5010067;28;20488;-80
2023/09/25 01:27:47;;;;;;;5.00;3.23;;;10.70;79.30;;;;;;5009671;28;20429;-80
2023/09/25 01:30:16;;;;;;;5.10;3.43;;;10.70;79.50;;;;;;5022277;28;20476;-81
2023/09/25 01:32:45;;;;;;;5.90;3.10;;;10.70;79.30;;;;;;5031697;28;20445;-81
2023/09/25 01:35:15;;;;;;;5.47;3.00;;;10.70;79.30;;;;;;5027732;28;21028;-80
2023/09/25 01:37:42;;;;;;;5.40;3.00;;;10.70;79.00;;;;;;5006985;28;20464;-80
2023/09/25 01:40:11;;;;;;;8.70;3.50;;;10.70;78.90;;;;;;5022315;28;20413;-80
2023/09/25 01:42:37;;;;;;;7.50;4.00;;;10.60;78.60;;;;;;5015342;28;20447;-79
2023/09/25 01:45:03;;;;;;;7.13;3.20;;;10.50;79.20;;;;;;5011041;28;20847;-80
2023/09/25 01:47:29;;;;;;;5.33;3.70;;;10.50;79.60;;;;;;5018284;28;20177;-80
2023/09/25 01:49:56;;;;;;;6.50;3.30;;;10.40;79.70;;;;;;5024514;28;20419;-78
2023/09/25 01:52:21;;;;;;;7.37;3.30;;;10.40;80.00;;;;;;5026258;28;20488;-79
2023/09/25 01:54:47;;;;;;;7.23;3.80;;;10.40;80.30;;;;;;5016044;28;20933;-78
2023/09/25 01:57:13;;;;;;;8.30;3.53;;;10.50;80.30;;;;;;5010693;28;20232;-78
2023/09/25 01:59:38;;;;;;;5.50;3.20;;;10.40;80.20;;;;;;4986010;28;20221;-80
2023/09/25 02:02:04;;;;;;;4.73;3.20;;;10.40;80.50;;;;;;5004390;28;20605;-77
2023/09/25 02:04:30;;;;;;;6.40;3.40;;;10.30;80.50;;;;;;5003465;28;20453;-78
2023/09/25 02:06:55;;;;;;;6.80;3.50;;;10.20;80.60;;;;;;4997833;28;20749;-78
2023/09/25 02:09:21;;;;;;;6.80;3.70;;;10.30;80.60;;;;;;5010315;28;20186;-79
2023/09/25 02:11:46;;;;;;;9.30;3.50;;;10.30;80.00;;;;;;5002703;28;20206;-79
2023/09/25 02:14:12;;;;;;;11.67;3.60;;;10.20;79.90;;;;;;5020692;28;20205;-79
2023/09/25 02:16:37;;;;;;;5.77;3.70;;;10.10;80.50;;;;;;5027001;28;20209;-81
2023/09/25 02:19:03;;;;;;;7.13;3.97;;;9.90;80.60;;;;;;5023149;28;20213;-79
2023/09/25 02:21:29;;;;;;;6.70;3.67;;;9.80;81.10;;;;;;5035757;28;20182;-79
2023/09/25 02:23:55;;;;;;;7.43;3.60;;;9.80;81.50;;;;;;5022365;28;20500;-79
2023/09/25 02:26:20;;;;;;;4.80;3.30;;;9.80;81.50;;;;;;5015832;28;20199;-80
2023/09/25 02:28:46;;;;;;;7.63;4.00;;;9.90;81.20;;;;;;5008253;28;20206;-77
2023/09/25 02:31:13;;;;;;;7.37;3.70;;;9.90;80.90;;;;;;5015337;28;20362;-79
2023/09/25 02:33:39;;;;;;;6.67;3.67;;;9.70;81.10;;;;;;5025281;28;20185;-80
2023/09/25 02:36:06;;;;;;;5.23;3.37;;;9.80;81.50;;;;;;5023296;28;20488;-80
2023/09/25 02:38:31;;;;;;;7.13;3.53;;;9.90;81.20;;;;;;4997844;28;20480;-78
2023/09/25 02:40:57;;;;;;;6.80;3.67;;;9.90;81.10;;;;;;5017981;28;20424;-79
2023/09/25 02:43:23;;;;;;;7.60;3.57;;;9.90;81.20;;;;;;5020375;28;20185;-77
2023/09/25 02:45:49;;;;;;;4.07;2.97;;;9.80;81.40;;;;;;5009544;28;20213;-78
2023/09/25 02:48:14;;;;;;;5.00;3.00;;;9.80;81.50;;;;;;4997552;28;20247;-79
2023/09/25 02:50:40;;;;;;;3.73;3.17;;;9.80;81.70;;;;;;5015064;28;20198;-78
2023/09/25 02:53:06;;;;;;;4.17;2.97;;;9.80;81.70;;;;;;5018399;28;20190;-79
2023/09/25 02:55:34;;;;;;;8.53;3.57;;;9.90;81.50;;;;;;5028110;28;20190;-81
2023/09/25 02:57:59;;;;;;;9.47;3.57;;;9.80;81.40;;;;;;5018996;28;20551;-79
2023/09/25 03:00:27;;;;;;;6.40;3.40;;;9.70;81.50;;;;;;5020476;28;20864;-80
2023/09/25 03:02:54;;;;;;;7.10;3.20;;;9.70;81.80;;;;;;5027026;28;20198;-80
2023/09/25 03:05:20;;;;;;;5.00;3.63;;;9.80;81.80;;;;;;5011698;28;20473;-79
2023/09/25 03:07:46;;;;;;;4.93;3.20;;;9.80;81.40;;;;;;5015423;28;20452;-80
2023/09/25 03:10:11;;;;;;;6.17;3.63;;;9.70;81.40;;;;;;5020707;28;20186;-80
2023/09/25 03:12:38;;;;;;;5.93;3.10;;;9.60;81.80;;;;;;5021946;28;20437;-81
2023/09/25 03:15:07;;;;;;;6.10;3.50;;;9.60;82.10;;;;;;5020371;28;20206;-80
2023/09/25 03:17:32;;;;;;;5.70;3.23;;;9.50;82.20;;;;;;5026758;28;20412;-78
2023/09/25 03:19:58;;;;;;;6.67;4.20;;;9.50;82.10;;;;;;5016665;28;20431;-76
2023/09/25 03:22:24;;;;;;;6.57;3.80;;;9.50;82.50;;;;;;5011584;28;20433;-77
2023/09/25 03:24:49;;;;;;;5.47;3.80;;;9.50;82.20;;;;;;5026710;28;20186;-77
2023/09/25 03:27:16;;;;;;;5.03;3.17;;;9.60;82.10;;;;;;5015287;28;20182;-77
2023/09/25 03:29:42;;;;;;;8.23;3.33;;;9.50;82.10;;;;;;5011287;28;20650;-77
2023/09/25 03:32:08;;;;;;;5.50;3.20;;;9.50;82.20;;;;;;5011989;28;20455;-76
2023/09/25 03:34:33;;;;;;;6.00;3.50;;;9.50;82.50;;;;;;5007420;28;20435;-77
2023/09/25 03:36:59;;;;;;;4.63;2.83;;;9.60;82.40;;;;;;5003438;28;20201;-77
2023/09/25 03:39:24;;;;;;;8.10;3.30;;;9.60;82.20;;;;;;5004916;28;20272;-76
2023/09/25 03:41:50;;;;;;;7.63;3.70;;;9.60;82.20;;;;;;5007532;28;20190;-79
2023/09/25 03:44:15;;;;;;;5.70;3.07;;;9.60;82.20;;;;;;5013949;28;20186;-79
2023/09/25 03:46:41;;;;;;;6.53;3.23;;;9.50;82.10;;;;;;5005169;28;20202;-78
2023/09/25 03:49:07;;;;;;;4.00;2.50;;;9.40;82.10;;;;;;4995025;28;20188;-79
2023/09/25 03:51:33;;;;;;;7.03;3.00;;;9.30;82.40;;;;;;5011948;28;20190;-79
2023/09/25 03:53:59;;;;;;;6.00;3.43;;;9.30;82.70;;;;;;5009260;28;20428;-78
2023/09/25 03:56:25;;;;;;;6.50;3.00;;;9.30;83.00;;;;;;4983723;28;20206;-79
2023/09/25 03:58:51;;;;;;;4.93;3.03;;;9.30;82.80;;;;;;5009998;28;20474;-77
2023/09/25 04:01:17;;;;;;;4.53;3.13;;;9.50;82.80;;;;;;5008237;28;20429;-78
2023/09/25 04:03:43;;;;;;;5.47;3.03;;;9.40;82.50;;;;;;5006388;28;20728;-78
2023/09/25 04:06:09;;;;;;;7.90;3.53;;;9.40;82.50;;;;;;4999342;28;20457;-79
2023/09/25 04:08:35;;;;;;;6.50;3.77;;;9.40;82.70;;;;;;5010061;28;20182;-78
2023/09/25 04:11:00;;;;;;;6.30;3.80;;;9.40;82.70;;;;;;5008443;28;20417;-80
2023/09/25 04:13:27;;;;;;;4.43;3.37;;;9.40;82.70;;;;;;5009303;28;20417;-79
2023/09/25 04:15:54;;;;;;;4.53;3.07;;;9.40;82.70;;;;;;5008361;28;21018;-78
2023/09/25 04:18:21;;;;;;;5.10;2.97;;;9.50;82.70;;;;;;5011691;28;20508;-81
2023/09/25 04:20:47;;;;;;;6.97;3.37;;;9.50;82.70;;;;;;5013259;28;20437;-79
2023/09/25 04:23:13;;;;;;;5.40;3.43;;;9.50;82.50;;;;;;5013676;28;21000;-79
2023/09/25 04:25:39;;;;;;;6.90;3.20;;;9.50;82.50;;;;;;5009879;28;20202;-79
2023/09/25 04:28:05;;;;;;;5.43;3.00;;;9.40;82.40;;;;;;5007369;28;20563;-78
2023/09/25 04:30:31;;;;;;;4.37;2.97;;;9.40;82.40;;;;;;5016288;28;20733;-80
2023/09/25 04:32:57;;;;;;;6.47;3.47;;;9.40;82.20;;;;;;5014677;28;20480;-78
2023/09/25 04:35:24;;;;;;;5.67;3.20;;;9.40;82.20;;;;;;5015187;28;20536;-80
2023/09/25 04:37:50;;;;;;;5.40;3.13;;;9.30;82.40;;;;;;5015293;28;20262;-79
2023/09/25 04:42:46;;;;;;;4.27;2.60;;;9.30;82.70;;;;;;5020481;28;20421;-78
2023/09/25 04:45:13;;;;;;;8.13;2.77;;;9.30;82.80;;;;;;5023749;28;20520;-78
2023/09/25 04:47:42;;;;;;;4.30;2.77;;;9.20;82.70;;;;;;5016688;28;20417;-78
2023/09/25 04:50:11;;;;;;;4.07;2.73;;;9.10;82.80;;;;;;5027544;28;20441;-78
2023/09/25 04:52:40;;;;;;;6.83;3.13;;;9.00;83.10;;;;;;5024207;28;20441;-79
2023/09/25 04:55:07;;;;;;;5.37;3.10;;;9.20;83.40;;;;;;5018608;28;20475;-79
2023/09/25 04:57:33;;;;;;;4.50;2.93;;;9.30;83.30;;;;;;5009653;28;20504;-78
2023/09/25 04:59:59;;;;;;;6.07;3.17;;;9.30;82.80;;;;;;5012550;28;20421;-79
2023/09/25 05:02:24;;;;;;;5.90;3.70;;;9.40;82.70;;;;;;5010958;28;20936;-80
2023/09/25 05:04:50;;;;;;;6.30;4.03;;;9.30;82.40;;;;;;5001769;28;20225;-79
2023/09/25 05:07:16;;;;;;;5.17;3.50;;;9.30;82.40;;;;;;5016193;28;20178;-77
2023/09/25 05:09:42;;;;;;;11.23;4.00;;;9.10;82.50;;;;;;5017152;28;20520;-79
2023/09/25 05:12:08;;;;;;;12.87;3.73;;;9.20;83.00;;;;;;5012515;28;20457;-79
2023/09/25 05:14:34;;;;;;;8.53;4.10;;;9.10;83.00;;;;;;5015121;28;20412;-79
2023/09/25 05:17:00;;;;;;;5.70;3.53;;;9.10;83.30;;;;;;5005221;28;20202;-79
2023/09/25 05:19:26;;;;;;;6.17;3.43;;;9.20;83.40;;;;;;5015555;28;20205;-79
2023/09/25 05:21:51;;;;;;;6.40;3.43;;;9.20;83.60;;;;;;5016820;28;20425;-79
2023/09/25 05:24:17;;;;;;;5.93;3.60;;;9.20;83.60;;;;;;5019374;28;20427;-78
2023/09/25 05:26:42;;;;;;;6.10;3.50;;;9.30;83.30;;;;;;5009333;28;20244;-79
2023/09/25 05:29:08;;;;;;;8.83;4.50;;;9.30;82.40;;;;;;5004731;28;20182;-77
2023/09/25 05:31:33;;;;;;;7.03;4.30;;;9.30;82.50;;;;;;5010112;28;20244;-78
2023/09/25 05:33:59;;;;;;;11.30;4.70;;;9.30;82.50;;;;;;5010606;28;20185;-78
2023/09/25 05:36:25;;;;;;;5.50;3.40;;;9.30;82.70;;;;;;5006496;28;20205;-78
2023/09/25 05:38:55;;;;;;;7.17;3.80;;;9.20;82.70;;;;;;5004855;28;20255;-78
2023/09/25 05:41:21;;;;;;;7.10;3.67;;;9.30;82.70;;;;;;5006605;28;20212;-78
2023/09/25 05:43:46;;;;;;;8.80;3.93;;;9.20;82.70;;;;;;5010580;28;20977;-79
2023/09/25 05:46:12;;;;;;;7.17;3.83;;;9.30;83.00;;;;;;5009076;28;20222;-79
2023/09/25 05:48:39;;;;;;;7.07;3.70;;;9.30;83.00;;;;;;5009482;28;20182;-80
2023/09/25 05:51:04;;;;;;;7.43;4.13;;;9.30;83.10;;;;;;5012403;28;20847;-78
2023/09/25 05:53:30;;;;;;;6.00;3.60;;;9.40;83.30;;;;;;5007673;28;20436;-80
2023/09/25 05:55:56;;;;;;;5.97;3.33;;;9.50;83.40;;;;;;5006329;28;20205;-79
2023/09/25 05:58:22;;;;;;;7.67;3.70;;;9.50;83.30;;;;;;5003030;28;20545;-79
2023/09/25 06:00:47;;;;;;;9.00;4.70;;;9.50;83.10;;;;;;5017488;28;20483;-80
2023/09/25 06:03:14;;;;;;;7.73;3.73;;;9.60;83.10;;;;;;5016534;28;20193;-80
2023/09/25 06:05:40;;;;;;;7.73;4.13;;;9.50;83.00;;;;;;5007317;28;20987;-78
2023/09/25 06:08:06;;;;;;;8.23;3.90;;;9.50;83.00;;;;;;5019532;28;20453;-79
2023/09/25 06:10:32;;;;;;;8.37;4.60;;;9.60;82.80;;;;;;5022314;28;20424;-79
2023/09/25 06:12:59;;;;;;;11.27;4.30;;;9.60;82.40;;;;;;5026862;28;20250;-81
2023/09/25 06:15:28;;;;;;;12.20;5.57;;;9.60;82.40;;;;;;5030688;28;20463;-82
2023/09/25 06:17:59;;;;;;;8.83;5.00;;;9.70;82.10;;;;;;5029265;28;20457;-81
2023/09/25 06:20:26;;;;;;;10.17;4.87;;;9.70;81.70;;;;;;5025972;28;20421;-81
2023/09/25 06:22:52;;;;;;;10.73;5.30;;;9.70;81.40;;;;;;5034366;28;20433;-80
2023/09/25 06:25:18;;;;;;;11.43;5.10;;;9.60;81.70;;;;;;5029994;28;20508;-82
2023/09/25 06:27:44;;;;;;;9.53;5.37;;;9.60;81.90;;;;;;5023236;28;20194;-82
2023/09/25 06:30:14;;;;;;;12.00;5.67;;;9.60;82.20;;;;;;5018944;28;20455;-82
2023/09/25 06:32:40;;;;;;;8.40;4.90;;;9.70;82.20;;;;;;5022356;28;21288;-81
2023/09/25 06:35:06;;;;;;;9.10;4.90;;;9.70;82.20;;;;;;5014492;28;20491;-81
2023/09/25 06:37:35;;;;;;;9.60;5.23;;;9.80;81.90;;;;;;5014819;28;20425;-82
2023/09/25 06:40:00;;;;;;;13.10;5.60;;;9.90;81.80;;;;;;5018295;28;20452;-81
2023/09/25 06:42:26;;;;;;;9.07;4.93;;;9.80;81.70;;;;;;5024416;28;20435;-80
2023/09/25 06:44:53;;;;;;;8.87;4.53;;;9.80;82.10;;;;;;5024421;28;20187;-83
2023/09/25 06:47:19;;;;;;;9.53;4.83;;;9.90;82.40;;;;;;5017913;28;20421;-81
2023/09/25 06:49:44;;;;;;;10.87;5.30;;;9.90;82.40;;;;;;5031476;28;20441;-82
2023/09/25 06:52:10;;;;;;;9.80;5.23;;;10.00;82.50;;;;;;5032641;28;20224;-80
2023/09/25 06:54:36;;;;;;;8.83;4.60;;;10.10;81.80;;;;;;5034005;28;20186;-78
2023/09/25 06:57:01;;;;;;;8.67;5.60;;;10.10;81.70;;;;;;5031539;28;20216;-81
2023/09/25 06:59:27;;;;;;;8.60;4.20;;;10.20;81.20;;;;;;5033408;28;20197;-81
2023/09/25 07:01:53;;;;;;;23.20;6.30;;;10.30;81.20;;;;;;5017295;28;20185;-81
2023/09/25 07:04:21;;;;;;;12.50;5.90;;;10.30;81.20;;;;;;5034058;28;20674;-85
2023/09/25 07:06:46;;;;;;;12.37;4.83;;;10.50;80.90;;;;;;5029791;28;21095;-80
2023/09/25 07:09:14;;;;;;;8.20;5.33;;;10.50;80.80;;;;;;5020543;28;20422;-82
2023/09/25 07:11:40;;;;;;;9.80;5.50;;;10.60;80.60;;;;;;5009622;28;20190;-81
2023/09/25 07:14:05;;;;;;;9.73;5.40;;;10.70;80.60;;;;;;5026260;28;20462;-82
2023/09/25 07:16:32;;;;;;;8.80;5.63;;;10.70;80.50;;;;;;5013740;28;20211;-80
2023/09/25 07:18:59;;;;;;;7.53;4.40;;;10.80;80.20;;;;;;5014485;28;20225;-83
2023/09/25 07:21:25;;;;;;;10.53;4.27;;;10.90;80.00;;;;;;5025632;28;20429;-82
2023/09/25 07:23:51;;;;;;;7.97;4.50;;;11.00;79.60;;;;;;5025891;28;20437;-82
2023/09/25 07:26:17;;;;;;;6.90;4.60;;;11.10;78.60;;;;;;5020793;28;20469;-82
2023/09/25 07:28:47;;;;;;;6.30;4.40;;;11.00;78.60;;;;;;5020072;28;20182;-80
2023/09/25 07:31:19;;;;;;;8.00;4.57;;;11.10;78.70;;;;;;5030848;28;20512;-79
2023/09/25 07:33:45;;;;;;;8.00;4.67;;;11.20;78.30;;;;;;5025836;28;20410;-80
2023/09/25 07:36:11;;;;;;;10.00;5.37;;;11.40;77.70;;;;;;5024535;28;20497;-81
2023/09/25 07:38:38;;;;;;;11.57;5.00;;;11.40;77.30;;;;;;5021934;28;20494;-80
2023/09/25 07:41:05;;;;;;;11.80;6.47;;;11.50;77.60;;;;;;5024307;28;20560;-81
2023/09/25 07:43:32;;;;;;;10.10;5.27;;;11.60;77.40;;;;;;5023181;28;20498;-79
2023/09/25 07:45:59;;;;;;;11.30;5.97;;;11.80;77.00;;;;;;5028836;28;20950;-79
2023/09/25 07:48:25;;;;;;;11.47;6.23;;;11.80;76.50;;;;;;5026698;28;20436;-80
2023/09/25 07:50:55;;;;;;;13.17;7.00;;;11.80;76.80;;;;;;5013698;28;20543;-78
2023/09/25 07:53:23;;;;;;;11.33;6.30;;;11.80;77.40;;;;;;5026429;28;20508;-79
2023/09/25 07:55:51;;;;;;;11.30;6.30;;;12.00;77.30;;;;;;5014406;28;20533;-80
2023/09/25 07:58:18;;;;;;;14.97;6.30;;;12.10;77.30;;;;;;5019819;28;20492;-81
2023/09/25 08:00:46;;;;;;;12.03;6.27;;;12.20;77.00;;;;;;5024687;28;20479;-80
2023/09/25 08:03:17;;;;;;;11.40;6.20;;;12.40;76.50;;;;;;5020309;28;20476;-80
2023/09/25 08:05:43;;;;;;;14.73;6.30;;;12.60;75.90;;;;;;5013850;28;20540;-78
2023/09/25 08:08:11;;;;;;;9.13;5.90;;;12.60;75.80;;;;;;5018684;28;20504;-79
2023/09/25 08:10:47;;;;;;;14.13;6.93;;;12.70;75.50;;;;;;5011229;28;20424;-80
2023/09/25 08:13:12;;;;;;;12.60;7.90;;;12.80;75.20;;;;;;5024559;28;20413;-80
2023/09/25 08:15:40;;;;;;;16.80;6.93;;;12.90;74.80;;;;;;5025605;28;20456;-79
2023/09/25 08:18:06;;;;;;;11.90;6.20;;;12.90;74.50;;;;;;5015644;28;20206;-79
2023/09/25 08:20:35;;;;;;;10.00;6.20;;;13.00;73.90;;;;;;5020445;28;20457;-80
2023/09/25 08:23:01;;;;;;;9.67;5.77;;;13.00;73.60;;;;;;5007327;28;20193;-81
2023/09/25 08:25:28;;;;;;;10.87;6.50;;;13.20;73.30;;;;;;5000169;28;20516;-81
2023/09/25 08:27:53;;;;;;;10.20;5.67;;;13.20;72.90;;;;;;5021895;28;20425;-83
2023/09/25 08:30:19;;;;;;;9.80;5.60;;;13.40;72.60;;;;;;5021717;28;20208;-79
2023/09/25 08:32:46;;;;;;;9.20;5.17;;;13.60;72.00;;;;;;5020275;28;20212;-81
2023/09/25 08:35:11;;;;;;;7.27;4.80;;;13.70;71.70;;;;;;5024891;23;20236;-80
2023/09/25 08:37:41;;;;;;;8.40;4.40;;;13.80;71.10;;;;;;5016214;28;20464;-77
2023/09/25 08:40:09;;;;;;;9.10;5.67;;;14.00;70.70;;;;;;5007437;28;20217;-76
2023/09/25 08:42:35;;;;;;;8.10;5.70;;;14.20;70.40;;;;;;5011427;28;20547;-77
2023/09/25 08:45:03;;;;;;;10.60;4.90;;;14.30;69.70;;;;;;5007015;28;20824;-77
2023/09/25 08:47:31;;;;;;;12.07;4.87;;;14.40;69.70;;;;;;5008861;28;20981;-78
2023/09/25 08:49:57;;;;;;;10.07;4.70;;;14.60;69.20;;;;;;5003245;28;20430;-77
2023/09/25 08:52:23;;;;;;;6.23;4.63;;;14.80;69.10;;;;;;5011892;28;20484;-79
2023/09/25 08:54:50;;;;;;;5.70;4.50;;;14.90;68.50;;;;;;5007614;28;20468;-78
2023/09/25 08:57:19;;;;;;;6.77;4.50;;;15.00;67.90;;;;;;5005533;28;20205;-76
2023/09/25 08:59:47;;;;;;;7.23;4.37;;;15.10;67.90;;;;;;5006038;28;20484;-77
2023/09/25 09:02:13;;;;;;;9.73;4.37;;;15.20;67.50;;;;;;5010359;28;20419;-77
2023/09/25 09:04:39;;;;;;;10.27;4.70;;;15.30;67.30;;;;;;5001586;28;20430;-78
2023/09/25 09:07:06;;;;;;;6.47;4.20;;;15.40;67.00;;;;;;5008941;28;20495;-76
2023/09/25 09:09:32;;;;;;;9.20;4.50;;;15.40;66.60;;;;;;5000657;28;20435;-76
2023/09/25 09:11:58;;;;;;;7.70;4.23;;;15.50;66.30;;;;;;5007799;28;20495;-76
2023/09/25 09:14:50;;;;;;;5.60;3.80;;;15.60;66.30;;;;;;5004034;28;20417;-77
2023/09/25 09:17:16;;;;;;;10.10;4.63;;;15.70;65.80;;;;;;5011043;28;20981;-78
2023/09/25 09:19:48;;;;;;;6.27;4.07;;;15.80;65.70;;;;;;5015653;28;20477;-78
2023/09/25 09:22:16;;;;;;;8.53;4.70;;;15.90;65.60;;;;;;5013734;28;20187;-79
2023/09/25 09:24:43;;;;;;;8.27;4.37;;;15.90;65.70;;;;;;5012016;28;20496;-77
2023/09/25 09:27:09;;;;;;;11.63;4.50;;;16.00;65.30;;;;;;5011693;28;20444;-76
2023/09/25 09:29:42;;;;;;;8.00;4.40;;;16.10;65.00;;;;;;5008353;28;20448;-76
2023/09/25 09:32:08;;;;;;;8.13;4.10;;;16.10;64.70;;;;;;5007561;28;20425;-78
2023/09/25 09:34:35;;;;;;;5.83;3.50;;;16.20;64.80;;;;;;5006418;28;20443;-77
2023/09/25 09:37:01;;;;;;;8.27;4.43;;;16.30;64.80;;;;;;5007417;28;20568;-74
2023/09/25 09:39:28;;;;;;;6.83;3.83;;;16.50;64.50;;;;;;5008488;28;20615;-77
2023/09/25 09:41:56;;;;;;;4.63;3.07;;;16.60;64.10;;;;;;5012712;28;20605;-76
2023/09/25 09:44:22;;;;;;;6.93;3.47;;;16.70;64.40;;;;;;5012822;28;20438;-77
2023/09/25 09:46:50;;;;;;;11.40;4.40;;;16.80;63.80;;;;;;5007459;28;20464;-77
2023/09/25 09:49:22;;;;;;;6.30;3.67;;;16.90;63.70;;;;;;5006771;28;20236;-76
2023/09/25 09:51:49;;;;;;;5.70;3.17;;;16.90;64.20;;;;;;5000905;28;20850;-76
2023/09/25 09:54:21;;;;;;;5.70;3.57;;;17.00;64.20;;;;;;5012836;28;20981;-78
2023/09/25 09:56:48;;;;;;;6.33;3.63;;;16.90;64.20;;;;;;5009704;28;20466;-76
2023/09/25 09:59:17;;;;;;;4.43;3.33;;;16.90;64.20;;;;;;5013682;28;20530;-77
2023/09/25 10:01:47;;;;;;;5.57;3.67;;;16.90;64.10;;;;;;5013602;28;20496;-77
2023/09/25 10:04:14;;;;;;;5.97;3.07;;;17.00;64.40;;;;;;5012487;28;20408;-77
2023/09/25 10:07:08;;;;;;;8.23;3.67;;;17.00;64.10;;;;;;5005242;28;20512;-77
2023/09/25 10:09:34;;;;;;;5.60;2.90;;;17.00;64.20;;;;;;5012624;28;20792;-76
2023/09/25 10:12:02;;;;;;;4.47;2.70;;;17.10;63.90;;;;;;5012313;28;20428;-78
2023/09/25 10:14:30;;;;;;;6.23;3.27;;;17.30;63.10;;;;;;5012304;28;20542;-78
2023/09/25 10:17:02;;;;;;;7.77;3.47;;;17.30;62.80;;;;;;5005631;28;20558;-76
2023/09/25 10:19:40;;;;;;;5.13;3.13;;;17.40;62.80;;;;;;5014577;28;20567;-77
2023/09/25 10:22:20;;;;;;;9.63;3.63;;;17.50;62.50;;;;;;4997356;28;20421;-78
2023/09/25 10:24:48;;;;;;;6.07;3.63;;;17.60;62.20;;;;;;5005073;28;20440;-78
2023/09/25 10:27:16;;;;;;;6.20;3.43;;;17.70;62.80;;;;;;5004012;28;20531;-79
2023/09/25 10:30:08;;;;;;;9.33;3.60;;;17.90;63.10;;;;;;5010281;28;20438;-78
2023/09/25 10:32:38;;;;;;;5.00;3.50;;;18.20;62.20;;;;;;5010645;28;20435;-77
2023/09/25 10:35:38;;;;;;;6.63;3.70;;;18.70;61.50;;;;;;4996524;28;20939;-78
2023/09/25 10:38:26;;;;;;;7.23;3.80;;;19.30;60.10;;;;;;5015297;28;20598;-78
2023/09/25 10:40:54;;;;;;;7.80;3.43;;;19.50;59.60;;;;;;5014836;28;20599;-76
2023/09/25 10:43:24;;;;;;;7.60;3.30;;;19.40;59.50;;;;;;5016815;28;20509;-78
2023/09/25 10:45:52;;;;;;;10.20;3.83;;;19.60;59.60;;;;;;5015257;28;21014;-79
2023/09/25 10:48:18;;;;;;;6.63;3.40;;;20.00;58.90;;;;;;5015079;28;20453;-75
2023/09/25 10:50:44;;;;;;;5.77;3.60;;;20.20;58.00;;;;;;5015897;28;20535;-77
2023/09/25 10:53:10;;;;;;;3.53;3.07;;;20.20;58.00;;;;;;5014906;28;20190;-76
2023/09/25 10:55:37;;;;;;;6.07;3.40;;;20.40;58.10;;;;;;5014305;28;20446;-77
2023/09/25 10:58:04;;;;;;;5.60;3.53;;;20.50;57.70;;;;;;5022653;28;20471;-77
2023/09/25 11:00:32;;;;;;;4.07;3.10;;;20.70;56.60;;;;;;5022718;28;20428;-77
2023/09/25 11:02:59;;;;;;;5.33;3.47;;;20.90;56.50;;;;;;5021961;28;20428;-76
2023/09/25 11:05:28;;;;;;;7.17;3.83;;;21.30;56.40;;;;;;5018828;28;20471;-78
2023/09/25 11:07:53;;;;;;;5.27;3.67;;;21.70;55.20;;;;;;5021306;28;20427;-78
2023/09/25 11:10:19;;;;;;;4.37;3.00;;;21.90;54.90;;;;;;5022020;28;20420;-77
2023/09/25 11:12:48;;;;;;;7.07;3.70;;;22.10;54.40;;;;;;5018427;28;20264;-77
2023/09/25 11:15:17;;;;;;;8.93;3.87;;;22.00;54.00;;;;;;5018066;28;20375;-78
2023/09/25 11:17:44;;;;;;;4.30;3.40;;;22.00;54.80;;;;;;5016576;28;20510;-77
2023/09/25 11:20:18;;;;;;;6.67;3.30;;;22.10;54.10;;;;;;5013168;28;20543;-78
2023/09/25 11:22:46;;;;;;;6.00;3.47;;;22.30;54.40;;;;;;5009343;28;20519;-77
2023/09/25 11:25:15;;;;;;;4.90;3.27;;;22.80;52.60;;;;;;5006907;28;20501;-77
2023/09/25 11:27:51;;;;;;;6.70;3.50;;;22.80;52.20;;;;;;5007202;28;20463;-77
2023/09/25 11:30:16;;;;;;;6.60;3.10;;;22.90;52.80;;;;;;5006458;28;20452;-77
2023/09/25 11:32:42;;;;;;;5.60;2.80;;;23.00;52.40;;;;;;5007165;28;20469;-77
2023/09/25 11:35:12;;;;;;;6.87;2.97;;;23.60;51.00;;;;;;5003280;28;20233;-76
2023/09/25 11:38:01;;;;;;;4.70;3.30;;;24.10;49.80;;;;;;5009697;28;20188;-76
2023/09/25 11:40:28;;;;;;;5.40;3.30;;;23.60;49.90;;;;;;5010913;28;20423;-77
2023/09/25 11:42:55;;;;;;;4.33;3.13;;;22.80;52.00;;;;;;5010369;28;20428;-77
2023/09/25 11:45:21;;;;;;;4.30;2.97;;;22.50;52.60;;;;;;5006372;28;20464;-77
2023/09/25 11:47:47;;;;;;;5.00;3.37;;;22.20;53.40;;;;;;5012390;28;20413;-76
2023/09/25 11:50:15;;;;;;;5.13;3.20;;;22.20;54.00;;;;;;5011342;28;20476;-75
2023/09/25 11:52:46;;;;;;;4.27;2.77;;;22.30;52.90;;;;;;5006859;28;20857;-77
2023/09/25 11:55:14;;;;;;;7.30;2.80;;;22.60;51.80;;;;;;5008555;28;20986;-77
2023/09/25 11:57:44;;;;;;;5.50;3.07;;;22.80;51.40;;;;;;4993614;28;20437;-77
2023/09/25 12:00:12;;;;;;;5.97;3.47;;;23.20;50.60;;;;;;5009232;28;20840;-77
2023/09/25 12:02:39;;;;;;;4.07;2.40;;;23.40;50.30;;;;;;5009149;28;20428;-76
2023/09/25 12:05:06;;;;;;;4.47;2.60;;;24.00;49.10;;;;;;5005768;28;20467;-77
2023/09/25 12:07:32;;;;;;;4.40;2.60;;;24.10;48.50;;;;;;5010714;28;20530;-77
2023/09/25 12:09:59;;;;;;;6.00;3.17;;;24.30;47.50;;;;;;5007797;28;20501;-78
2023/09/25 12:12:25;;;;;;;4.97;2.90;;;24.60;47.40;;;;;;5011528;28;20810;-78
2023/09/25 12:14:56;;;;;;;5.60;2.80;;;24.60;46.20;;;;;;5006117;28;20416;-81
2023/09/25 12:17:23;;;;;;;4.30;2.60;;;24.90;46.70;;;;;;5013326;28;20468;-78
2023/09/25 12:19:50;;;;;;;4.40;2.90;;;25.10;45.40;;;;;;5006496;28;20489;-78
2023/09/25 12:22:15;;;;;;;4.40;2.17;;;24.70;44.70;;;;;;5011791;28;20422;-77
2023/09/25 12:24:41;;;;;;;6.70;3.13;;;24.60;45.70;;;;;;5001371;28;20484;-80
2023/09/25 12:27:06;;;;;;;4.80;2.50;;;24.60;46.10;;;;;;5010427;28;20201;-76
2023/09/25 12:29:32;;;;;;;4.30;2.93;;;24.30;46.50;;;;;;5008936;28;20689;-76
2023/09/25 12:31:58;;;;;;;4.87;2.67;;;24.10;47.00;;;;;;5009483;28;20189;-77
2023/09/25 12:34:24;;;;;;;4.97;2.70;;;24.00;46.90;;;;;;5007319;28;20645;-77
2023/09/25 12:36:49;;;;;;;4.23;3.50;;;24.10;47.70;;;;;;4994009;28;20336;-77
2023/09/25 12:39:16;;;;;;;3.07;2.60;;;24.00;46.60;;;;;;5010805;28;20503;-76
2023/09/25 12:41:42;;;;;;;4.80;2.60;;;23.60;48.10;;;;;;4998200;28;20690;-78
2023/09/25 12:44:09;;;;;;;4.40;2.77;;;23.60;49.30;;;;;;5014088;28;20419;-77
2023/09/25 12:46:35;;;;;;;3.43;2.30;;;24.00;47.50;;;;;;5016306;28;20226;-77
2023/09/25 12:49:00;;;;;;;4.30;2.87;;;23.90;47.40;;;;;;5016583;28;20447;-77
2023/09/25 12:51:26;;;;;;;3.27;2.77;;;24.00;47.50;;;;;;5011819;28;20452;-76